createdAt,value
2023-01-01T00:00:53.162Z,0
2023-01-01T00:05:53.997Z,0
2023-01-01T00:10:54.830Z,0
2023-01-01T00:15:53.775Z,0
2023-01-01T00:20:53.196Z,0
2023-01-01T00:25:53.091Z,0
2023-01-01T00:40:54.043Z,0
2023-01-01T00:45:52.895Z,0
2023-01-01T00:50:52.857Z,0
2023-01-01T00:55:52.859Z,0
2023-01-01T01:00:52.916Z,0
2023-01-01T01:05:52.980Z,0
2023-01-01T01:10:52.849Z,0
2023-01-01T01:20:57.687Z,0
2023-01-01T01:25:53.064Z,0
2023-01-01T01:30:52.944Z,0
2023-01-01T01:35:52.961Z,0
2023-01-01T01:40:52.853Z,0
2023-01-01T01:50:52.925Z,0
2023-01-01T01:55:52.847Z,0
2023-01-01T02:00:52.817Z,0
2023-01-01T02:05:52.853Z,0
2023-01-01T02:10:54.246Z,0
2023-01-01T02:15:52.886Z,0
2023-01-01T02:20:52.961Z,0
2023-01-01T02:25:52.829Z,0
2023-01-01T02:30:52.913Z,0
2023-01-01T02:35:53.178Z,0
2023-01-01T02:40:52.838Z,0
2023-01-01T02:45:52.885Z,0
2023-01-01T02:50:53.062Z,0
2023-01-01T02:55:52.962Z,0
2023-01-01T03:00:52.899Z,0
2023-01-01T03:05:52.959Z,0
2023-01-01T03:10:52.900Z,0
2023-01-01T03:20:56.159Z,0
2023-01-01T03:25:53.941Z,0
2023-01-01T03:30:53.181Z,0
2023-01-01T03:35:53.043Z,0
2023-01-01T03:40:52.905Z,0
2023-01-01T03:45:53.949Z,0
2023-01-01T03:50:53.048Z,0
2023-01-01T03:55:53.069Z,0
2023-01-01T04:00:58.727Z,0
2023-01-01T04:06:03.370Z,0
2023-01-01T04:10:54.117Z,0
2023-01-01T04:15:53.199Z,0
2023-01-01T04:20:52.938Z,0
2023-01-01T04:25:52.877Z,0
2023-01-01T04:35:53.100Z,0
2023-01-01T04:40:52.876Z,0
2023-01-01T04:45:52.970Z,0
2023-01-01T04:50:52.971Z,0
2023-01-01T04:55:53.034Z,0
2023-01-01T05:00:52.905Z,0
2023-01-01T05:05:52.937Z,0
2023-01-01T05:10:52.862Z,0
2023-01-01T05:15:53.397Z,0
2023-01-01T05:20:52.950Z,0
2023-01-01T05:25:52.946Z,0
2023-01-01T05:30:52.888Z,0
2023-01-01T05:35:53.007Z,0
2023-01-01T05:40:53.042Z,0
2023-01-01T05:45:53.007Z,0
2023-01-01T05:50:55.940Z,0
2023-01-01T05:55:53.175Z,0
2023-01-01T06:00:52.930Z,0
2023-01-01T06:05:54.222Z,0
2023-01-01T06:10:52.900Z,0
2023-01-01T06:15:53.269Z,0
2023-01-01T06:20:53.322Z,0
2023-01-01T06:25:54.054Z,0
2023-01-01T06:30:53.195Z,0
2023-01-01T06:35:53.009Z,0
2023-01-01T06:40:53.222Z,0
2023-01-01T06:45:52.934Z,0
2023-01-01T07:00:53.096Z,0
2023-01-01T07:05:53.947Z,0
2023-01-01T07:10:52.958Z,266
2023-01-01T07:15:52.960Z,266
2023-01-01T07:20:52.944Z,267
2023-01-01T07:25:52.957Z,271
2023-01-01T07:30:52.964Z,275
2023-01-01T07:35:54.017Z,281
2023-01-01T07:40:52.905Z,285
2023-01-01T07:45:53.001Z,290
2023-01-01T07:50:52.945Z,290
2023-01-01T07:56:02.991Z,292
2023-01-01T08:00:52.979Z,293
2023-01-01T08:05:52.951Z,297
2023-01-01T08:10:52.956Z,306
2023-01-01T08:15:54.488Z,309
2023-01-01T08:20:52.971Z,318
2023-01-01T08:25:52.940Z,323
2023-01-01T08:30:53.480Z,332
2023-01-01T08:35:56.015Z,333
2023-01-01T08:40:52.921Z,342
2023-01-01T08:45:52.969Z,339
2023-01-01T08:50:52.978Z,342
2023-01-01T08:56:13.353Z,344
2023-01-01T09:00:52.967Z,334
2023-01-01T09:05:52.928Z,326
2023-01-01T09:10:52.966Z,334
2023-01-01T09:15:52.938Z,337
2023-01-01T09:20:52.982Z,320
2023-01-01T09:25:53.194Z,326
2023-01-01T09:30:52.977Z,331
2023-01-01T09:35:53.052Z,332
2023-01-01T09:40:53.015Z,330
2023-01-01T09:45:52.964Z,335
2023-01-01T09:50:53.190Z,343
2023-01-01T09:55:58.829Z,346
2023-01-01T10:00:52.996Z,346
2023-01-01T10:05:52.965Z,348
2023-01-01T10:10:53.974Z,352
2023-01-01T10:15:53.506Z,348
2023-01-01T10:20:53.026Z,350
2023-01-01T10:25:54.594Z,343
2023-01-01T10:30:53.087Z,341
2023-01-01T10:35:53.229Z,341
2023-01-01T10:40:52.979Z,334
2023-01-01T10:45:54.033Z,328
2023-01-01T10:50:53.012Z,329
2023-01-01T10:56:18.395Z,333
2023-01-01T11:00:53.006Z,331
2023-01-01T11:05:52.968Z,322
2023-01-01T11:10:53.455Z,319
2023-01-01T11:15:52.987Z,321
2023-01-01T11:20:53.048Z,315
2023-01-01T11:25:52.988Z,316
2023-01-01T11:30:53.071Z,316
2023-01-01T11:35:52.975Z,320
2023-01-01T11:40:53.272Z,321
2023-01-01T11:45:54.120Z,317
2023-01-01T11:50:56.101Z,314
2023-01-01T11:55:54.466Z,311
2023-01-01T12:00:54.052Z,310
2023-01-01T12:05:53.021Z,307
2023-01-01T12:10:53.011Z,303
2023-01-01T12:15:53.039Z,299
2023-01-01T12:20:53.303Z,303
2023-01-01T12:25:53.020Z,308
2023-01-01T12:30:53.110Z,308
2023-01-01T12:35:53.035Z,305
2023-01-01T12:40:53.017Z,303
2023-01-01T12:45:53.064Z,292
2023-01-01T12:50:58.557Z,292
2023-01-01T12:55:58.498Z,295
2023-01-01T13:00:53.088Z,305
2023-01-01T13:05:53.075Z,305
2023-01-01T13:10:53.041Z,303
2023-01-01T13:15:53.056Z,298
2023-01-01T13:20:53.016Z,290
2023-01-01T13:25:53.049Z,287
2023-01-01T13:30:53.560Z,290
2023-01-01T13:35:53.078Z,292
2023-01-01T13:40:54.082Z,291
2023-01-01T13:46:12.647Z,289
2023-01-01T13:50:53.037Z,290
2023-01-01T13:55:58.091Z,286
2023-01-01T14:00:53.375Z,284
2023-01-01T14:05:53.275Z,283
2023-01-01T14:10:53.059Z,281
2023-01-01T14:15:55.728Z,279
2023-01-01T14:20:53.260Z,278
2023-01-01T14:25:53.132Z,275
2023-01-01T14:40:53.088Z,272
2023-01-01T14:45:53.090Z,269
2023-01-01T14:50:53.359Z,268
2023-01-01T14:55:53.166Z,268
2023-01-01T15:00:53.178Z,265
2023-01-01T15:05:53.105Z,265
2023-01-01T15:10:53.958Z,0
2023-01-01T15:15:53.075Z,0
2023-01-01T15:20:53.173Z,0
2023-01-01T15:25:53.153Z,0
2023-01-01T15:30:53.107Z,0
2023-01-01T15:35:53.264Z,0
2023-01-01T15:40:54.184Z,0
2023-01-01T15:45:53.319Z,0
2023-01-01T15:50:53.177Z,0
2023-01-01T15:55:53.106Z,0
2023-01-01T16:00:53.106Z,0
2023-01-01T16:05:53.118Z,0
2023-01-01T16:10:54.234Z,0
2023-01-01T16:15:53.493Z,0
2023-01-01T16:20:53.187Z,0
2023-01-01T16:25:53.120Z,0
2023-01-01T16:30:53.307Z,0
2023-01-01T16:35:54.326Z,0
2023-01-01T16:40:53.343Z,0
2023-01-01T16:45:53.433Z,0
2023-01-01T16:50:53.471Z,0
2023-01-01T16:55:53.204Z,0
2023-01-01T17:00:54.180Z,0
2023-01-01T17:05:53.122Z,0
2023-01-01T17:10:58.743Z,0
2023-01-01T17:15:55.011Z,0
2023-01-01T17:20:53.830Z,0
2023-01-01T17:25:53.242Z,0
2023-01-01T17:30:53.163Z,0
2023-01-01T17:35:53.351Z,0
2023-01-01T17:40:53.274Z,0
2023-01-01T17:45:53.388Z,0
2023-01-01T17:50:53.135Z,0
2023-01-01T17:55:53.134Z,0
2023-01-01T18:00:53.106Z,0
2023-01-01T18:05:53.137Z,0
2023-01-01T18:10:53.195Z,0
2023-01-01T18:15:53.186Z,0
2023-01-01T18:20:53.157Z,0
2023-01-01T18:25:53.155Z,0
2023-01-01T18:30:53.385Z,0
2023-01-01T18:35:53.226Z,0
2023-01-01T18:40:53.152Z,0
2023-01-01T18:45:54.198Z,0
2023-01-01T18:50:53.416Z,0
2023-01-01T18:55:54.139Z,0
2023-01-01T19:00:53.288Z,0
2023-01-01T19:05:53.127Z,0
2023-01-01T19:10:53.172Z,0
2023-01-01T19:15:54.254Z,0
2023-01-01T19:20:53.126Z,0
2023-01-01T19:25:53.163Z,0
2023-01-01T19:30:53.529Z,0
2023-01-01T19:35:54.564Z,0
2023-01-01T19:40:53.107Z,0
2023-01-01T19:45:53.163Z,0
2023-01-01T19:50:53.146Z,0
2023-01-01T19:55:53.215Z,0
2023-01-01T20:00:53.220Z,0
2023-01-01T20:05:53.158Z,0
2023-01-01T20:10:54.189Z,0
2023-01-01T20:15:53.138Z,0
2023-01-01T20:20:53.157Z,0
2023-01-01T20:25:54.312Z,0
2023-01-01T20:30:53.233Z,0
2023-01-01T20:35:53.381Z,0
2023-01-01T20:40:53.156Z,0
2023-01-01T20:45:53.156Z,0
2023-01-01T20:50:53.220Z,0
2023-01-01T20:55:53.199Z,0
2023-01-01T21:00:53.249Z,0
2023-01-01T21:05:53.235Z,0
2023-01-01T21:10:54.287Z,0
2023-01-01T21:15:53.170Z,0
2023-01-01T21:20:53.692Z,0
2023-01-01T21:25:53.222Z,0
2023-01-01T21:30:53.219Z,0
2023-01-01T21:35:53.337Z,0
2023-01-01T21:40:53.291Z,0
2023-01-01T21:45:53.209Z,0
2023-01-01T21:50:53.856Z,0
2023-01-01T21:55:53.216Z,0
2023-01-01T22:00:53.364Z,0
2023-01-01T22:05:59.403Z,0
2023-01-01T22:10:53.268Z,0
2023-01-01T22:15:53.158Z,0
2023-01-01T22:20:53.357Z,0
2023-01-01T22:25:53.220Z,0
2023-01-01T22:30:53.210Z,0
2023-01-01T22:35:53.328Z,0
2023-01-01T22:40:54.477Z,0
2023-01-01T22:45:55.761Z,0
2023-01-01T22:50:53.277Z,0
2023-01-01T22:55:54.752Z,0
2023-01-01T23:00:53.246Z,0
2023-01-01T23:05:53.283Z,0
2023-01-01T23:10:58.002Z,0
2023-01-01T23:15:56.449Z,0
2023-01-01T23:20:53.346Z,0
2023-01-01T23:25:53.393Z,0
2023-01-01T23:30:53.275Z,0
2023-01-01T23:35:53.641Z,0
2023-01-01T23:40:53.610Z,0
2023-01-01T23:45:53.544Z,0
2023-01-01T23:50:54.832Z,0
2023-01-01T23:55:53.417Z,0
